createdAt,value
2023-05-09T00:02:01.324Z,15.50
2023-05-09T00:04:28.047Z,14.30
2023-05-09T00:06:54.527Z,15.20
2023-05-09T00:09:20.994Z,17.20
2023-05-09T00:11:47.505Z,13.43
2023-05-09T00:14:14.003Z,13.73
2023-05-09T00:16:40.805Z,16.83
2023-05-09T00:19:07.484Z,14.88
2023-05-09T00:21:34.173Z,14.23
2023-05-09T00:24:01.275Z,14.07
2023-05-09T00:26:27.903Z,13.85
2023-05-09T00:28:54.376Z,14.90
2023-05-09T00:31:21.187Z,15.23
2023-05-09T00:33:47.658Z,14.25
2023-05-09T00:36:14.099Z,14.57
2023-05-09T00:38:40.568Z,15.05
2023-05-09T00:41:07.008Z,14.48
2023-05-09T00:43:33.470Z,15.25
2023-05-09T00:45:59.975Z,16.95
2023-05-09T00:48:26.717Z,15.15
2023-05-09T00:50:53.345Z,14.65
2023-05-09T00:53:20.762Z,16.25
2023-05-09T00:55:47.360Z,16.13
2023-05-09T00:58:14.079Z,11.82
2023-05-09T01:00:40.765Z,17.10
2023-05-09T01:03:07.732Z,14.85
2023-05-09T01:06:13.217Z,15.82
2023-05-09T01:08:56.802Z,16.45
2023-05-09T01:11:33.188Z,15.93
2023-05-09T01:14:15.909Z,14.27
2023-05-09T01:16:47.601Z,15.85
2023-05-09T01:19:32.833Z,14.88
2023-05-09T01:22:00.978Z,14.93
2023-05-09T01:25:02.036Z,16.25
2023-05-09T01:27:45.189Z,15.85
2023-05-09T01:30:13.557Z,15.75
2023-05-09T01:32:42.996Z,14.98
2023-05-09T01:35:12.857Z,15.25
2023-05-09T01:37:42.546Z,16.58
2023-05-09T01:40:14.967Z,15.73
2023-05-09T01:42:44.654Z,16.33
2023-05-09T01:45:12.613Z,16.92
2023-05-09T01:47:40.663Z,21.00
2023-05-09T01:50:08.064Z,15.88
2023-05-09T01:52:35.018Z,16.70
2023-05-09T01:55:02.509Z,17.75
2023-05-09T01:57:30.530Z,16.00
2023-05-09T01:59:58.335Z,16.20
2023-05-09T02:02:27.533Z,16.23
2023-05-09T02:04:56.264Z,17.88
2023-05-09T02:07:23.961Z,16.73
2023-05-09T02:09:56.432Z,15.80
2023-05-09T02:12:24.002Z,14.32
2023-05-09T02:14:51.017Z,17.05
2023-05-09T02:17:17.814Z,16.55
2023-05-09T02:19:44.354Z,15.68
2023-05-09T02:22:12.445Z,16.25
2023-05-09T02:24:39.096Z,14.82
2023-05-09T02:27:06.120Z,15.50
2023-05-09T02:29:42.190Z,16.95
2023-05-09T02:32:16.550Z,17.00
2023-05-09T02:34:43.812Z,16.75
2023-05-09T02:37:10.869Z,17.98
2023-05-09T02:39:37.406Z,17.13
2023-05-09T02:42:10.178Z,18.05
2023-05-09T02:44:37.226Z,16.98
2023-05-09T02:47:04.740Z,18.10
2023-05-09T02:49:32.689Z,17.83
2023-05-09T02:52:01.397Z,15.40
2023-05-09T02:54:27.966Z,17.42
2023-05-09T02:56:54.470Z,15.20
2023-05-09T02:59:21.128Z,14.35
2023-05-09T03:01:47.752Z,18.55
2023-05-09T03:04:16.519Z,20.20
2023-05-09T03:06:43.025Z,20.58
2023-05-09T03:09:09.907Z,15.10
2023-05-09T03:11:39.243Z,15.95
2023-05-09T03:14:06.257Z,17.40
2023-05-09T03:16:32.752Z,17.77
2023-05-09T03:18:59.701Z,14.63
2023-05-09T03:21:26.308Z,15.90
2023-05-09T03:23:52.862Z,14.93
2023-05-09T03:26:19.331Z,16.20
2023-05-09T03:28:46.314Z,13.35
2023-05-09T03:31:12.911Z,13.85
2023-05-09T03:33:39.405Z,16.85
2023-05-09T03:36:07.140Z,11.45
2023-05-09T03:38:34.064Z,13.18
2023-05-09T03:41:00.687Z,21.45
2023-05-09T03:43:27.424Z,19.40
2023-05-09T03:45:54.335Z,17.98
2023-05-09T03:48:20.794Z,16.13
2023-05-09T03:50:50.999Z,19.80
2023-05-09T03:53:20.336Z,15.43
2023-05-09T03:55:47.969Z,15.85
2023-05-09T03:58:15.919Z,15.07
2023-05-09T04:00:43.541Z,15.25
2023-05-09T04:03:16.206Z,17.42
2023-05-09T04:05:46.313Z,16.77
2023-05-09T04:08:22.866Z,22.83
2023-05-09T04:10:50.236Z,15.23
2023-05-09T04:13:16.883Z,17.45
2023-05-09T04:15:43.533Z,16.88
2023-05-09T04:18:10.118Z,17.75
2023-05-09T04:20:36.675Z,13.80
2023-05-09T04:23:03.512Z,18.60
2023-05-09T04:25:31.582Z,21.92
2023-05-09T04:27:58.207Z,12.48
2023-05-09T04:30:27.036Z,15.73
2023-05-09T04:32:55.460Z,20.00
2023-05-09T04:35:22.675Z,14.77
2023-05-09T04:37:51.921Z,16.92
2023-05-09T04:40:18.538Z,11.70
2023-05-09T04:45:21.833Z,16.15
2023-05-09T04:47:48.587Z,16.80
2023-05-09T04:50:16.495Z,16.15
2023-05-09T04:52:42.977Z,13.07
2023-05-09T04:55:10.560Z,15.55
2023-05-09T04:57:41.191Z,12.23
2023-05-09T05:00:08.206Z,12.98
2023-05-09T05:02:35.736Z,20.45
2023-05-09T05:05:11.493Z,8.75
2023-05-09T05:07:39.875Z,14.48
2023-05-09T05:10:07.168Z,15.25
2023-05-09T05:12:35.828Z,8.52
2023-05-09T05:15:02.577Z,7.70
2023-05-09T05:17:29.537Z,12.00
2023-05-09T05:19:58.189Z,11.57
2023-05-09T05:22:26.548Z,9.38
2023-05-09T05:24:53.093Z,11.63
2023-05-09T05:27:19.545Z,9.60
2023-05-09T05:29:46.502Z,14.50
2023-05-09T05:32:13.069Z,11.35
2023-05-09T05:34:39.824Z,13.05
2023-05-09T05:37:06.360Z,16.75
2023-05-09T05:39:32.890Z,10.88
2023-05-09T05:41:59.401Z,10.68
2023-05-09T05:44:26.512Z,12.23
2023-05-09T05:46:53.188Z,10.45
2023-05-09T05:49:19.822Z,8.60
2023-05-09T05:51:46.359Z,7.28
2023-05-09T05:54:12.964Z,9.65
2023-05-09T05:56:39.428Z,8.13
2023-05-09T05:59:06.792Z,8.35
2023-05-09T06:01:33.388Z,9.70
2023-05-09T06:04:00.020Z,8.88
2023-05-09T06:06:29.500Z,10.40
2023-05-09T06:08:56.364Z,6.22
2023-05-09T06:11:23.391Z,6.72
2023-05-09T06:13:49.866Z,9.32
2023-05-09T06:16:20.079Z,6.97
2023-05-09T06:18:49.896Z,7.85
2023-05-09T06:21:16.476Z,7.30
2023-05-09T06:23:57.584Z,7.07
2023-05-09T06:26:28.402Z,5.25
2023-05-09T06:28:55.098Z,5.53
2023-05-09T06:31:22.011Z,4.93
2023-05-09T06:33:49.529Z,5.03
2023-05-09T06:36:16.003Z,8.73
2023-05-09T06:38:42.442Z,5.50
2023-05-09T06:41:08.893Z,5.82
2023-05-09T06:43:35.362Z,5.50
2023-05-09T06:46:02.429Z,8.93
2023-05-09T06:48:28.911Z,6.13
2023-05-09T06:50:55.456Z,5.20
2023-05-09T06:53:21.961Z,6.07
2023-05-09T06:55:48.506Z,5.50
2023-05-09T06:58:15.302Z,5.68
2023-05-09T07:00:41.807Z,9.25
2023-05-09T07:03:08.359Z,7.07
2023-05-09T07:05:34.976Z,5.93
2023-05-09T07:08:01.515Z,4.80
2023-05-09T07:10:28.120Z,6.28
2023-05-09T07:12:54.616Z,5.60
2023-05-09T07:15:36.815Z,5.53
2023-05-09T07:18:03.730Z,7.40
2023-05-09T07:20:30.234Z,7.72
2023-05-09T07:22:58.327Z,6.05
2023-05-09T07:25:24.885Z,5.80
2023-05-09T07:27:51.361Z,5.38
2023-05-09T07:30:17.897Z,4.55
2023-05-09T07:32:44.404Z,6.70
2023-05-09T07:35:10.889Z,4.68
2023-05-09T07:37:37.394Z,7.65
2023-05-09T07:40:06.017Z,4.40
2023-05-09T07:42:35.135Z,5.78
2023-05-09T07:45:01.616Z,5.13
2023-05-09T07:47:28.165Z,5.40
2023-05-09T07:49:54.695Z,7.43
2023-05-09T07:52:21.173Z,6.22
2023-05-09T07:54:47.696Z,4.97
2023-05-09T07:57:14.289Z,4.85
2023-05-09T07:59:41.069Z,4.90
2023-05-09T08:02:07.570Z,7.45
2023-05-09T08:04:34.149Z,4.93
2023-05-09T08:07:04.028Z,8.60
2023-05-09T08:09:30.645Z,5.57
2023-05-09T08:11:57.114Z,5.65
2023-05-09T08:14:23.575Z,5.97
2023-05-09T08:16:50.150Z,5.47
2023-05-09T08:19:17.059Z,10.27
2023-05-09T08:21:43.554Z,6.68
2023-05-09T08:24:10.034Z,9.45
2023-05-09T08:26:36.540Z,6.18
2023-05-09T08:29:03.018Z,6.03
2023-05-09T08:31:29.532Z,6.85
2023-05-09T08:33:56.040Z,6.45
2023-05-09T08:36:22.499Z,5.07
2023-05-09T08:38:49.466Z,6.30
2023-05-09T08:41:16.329Z,5.78
2023-05-09T08:43:43.156Z,7.45
2023-05-09T08:46:10.890Z,6.65
2023-05-09T08:48:38.150Z,5.43
2023-05-09T08:51:05.992Z,5.70
2023-05-09T08:53:33.163Z,6.63
2023-05-09T08:56:01.659Z,7.13
2023-05-09T08:58:28.485Z,10.40
2023-05-09T09:00:58.241Z,6.63
2023-05-09T09:03:27.608Z,10.18
2023-05-09T09:05:54.958Z,6.80
2023-05-09T09:08:22.337Z,7.15
2023-05-09T09:10:48.964Z,6.25
2023-05-09T09:13:17.430Z,5.18
2023-05-09T09:15:45.669Z,6.68
2023-05-09T09:18:16.436Z,7.82
2023-05-09T09:20:48.579Z,11.48
2023-05-09T09:23:19.849Z,9.13
2023-05-09T09:25:47.465Z,8.25
2023-05-09T09:28:13.927Z,5.50
2023-05-09T09:30:44.654Z,5.97
2023-05-09T09:33:18.994Z,6.13
2023-05-09T09:35:45.484Z,7.93
2023-05-09T09:38:11.970Z,8.10
2023-05-09T09:40:40.532Z,12.85
2023-05-09T09:43:07.689Z,9.57
2023-05-09T09:45:34.176Z,8.07
2023-05-09T09:48:06.049Z,6.78
2023-05-09T09:50:32.563Z,6.40
2023-05-09T09:53:00.883Z,5.13
2023-05-09T09:55:27.488Z,6.13
2023-05-09T09:57:53.969Z,7.20
2023-05-09T10:00:26.081Z,7.13
2023-05-09T10:02:54.462Z,5.47
2023-05-09T10:05:21.535Z,5.60
2023-05-09T10:07:59.411Z,6.47
2023-05-09T10:10:31.146Z,10.63
2023-05-09T10:13:00.430Z,8.25
2023-05-09T10:15:30.045Z,7.15
2023-05-09T10:18:01.251Z,7.10
2023-05-09T10:20:28.291Z,14.93
2023-05-09T10:22:57.131Z,11.45
2023-05-09T10:25:28.942Z,8.82
2023-05-09T10:27:59.983Z,6.20
2023-05-09T10:30:35.980Z,9.13
2023-05-09T10:33:04.750Z,7.60
2023-05-09T10:35:33.588Z,9.82
2023-05-09T10:38:01.883Z,8.10
2023-05-09T10:40:28.866Z,6.43
2023-05-09T10:42:55.348Z,7.75
2023-05-09T10:45:22.228Z,8.55
2023-05-09T10:47:50.658Z,8.88
2023-05-09T10:50:17.650Z,10.93
2023-05-09T10:53:03.754Z,12.15
2023-05-09T10:55:56.554Z,9.20
2023-05-09T10:58:27.106Z,9.43
2023-05-09T11:00:57.144Z,7.75
2023-05-09T11:03:28.957Z,8.52
2023-05-09T11:05:57.264Z,7.78
2023-05-09T11:08:25.481Z,10.13
2023-05-09T11:11:02.586Z,10.93
2023-05-09T11:13:33.325Z,5.63
2023-05-09T11:16:02.981Z,6.28
2023-05-09T11:18:30.495Z,5.85
2023-05-09T11:20:57.016Z,6.38
2023-05-09T11:23:27.178Z,7.88
2023-05-09T11:25:53.748Z,10.70
2023-05-09T11:28:31.195Z,13.48
2023-05-09T11:31:15.040Z,8.00
2023-05-09T11:33:43.255Z,6.75
2023-05-09T11:36:27.889Z,7.35
2023-05-09T11:39:24.832Z,6.53
2023-05-09T11:41:51.330Z,7.93
2023-05-09T11:44:21.592Z,5.82
2023-05-09T11:46:49.203Z,8.45
2023-05-09T11:49:15.872Z,4.95
2023-05-09T11:51:42.584Z,6.75
2023-05-09T11:54:09.220Z,4.53
2023-05-09T11:56:37.583Z,10.85
2023-05-09T11:59:04.133Z,3.15
2023-05-09T12:01:30.696Z,4.15
2023-05-09T12:04:02.149Z,12.77
2023-05-09T12:06:30.083Z,4.05
2023-05-09T12:08:57.757Z,4.88
2023-05-09T12:11:24.601Z,6.50
2023-05-09T12:13:52.603Z,8.18
2023-05-09T12:16:20.237Z,5.13
2023-05-09T12:18:48.271Z,5.22
2023-05-09T12:21:15.625Z,7.82
2023-05-09T12:23:42.070Z,6.07
2023-05-09T12:26:08.581Z,7.93
2023-05-09T12:28:36.250Z,4.57
2023-05-09T12:31:04.042Z,3.92
2023-05-09T12:33:31.418Z,5.47
2023-05-09T12:36:16.248Z,3.90
2023-05-09T12:38:52.915Z,6.57
2023-05-09T12:41:34.885Z,2.70
2023-05-09T12:44:06.094Z,6.53
2023-05-09T12:46:32.737Z,5.43
2023-05-09T12:48:59.517Z,6.47
2023-05-09T12:51:26.055Z,5.65
2023-05-09T12:53:52.573Z,5.13
2023-05-09T12:56:20.738Z,4.18
2023-05-09T12:58:54.851Z,3.03
2023-05-09T13:01:24.000Z,6.45
2023-05-09T13:04:02.374Z,5.45
2023-05-09T13:06:29.011Z,6.32
2023-05-09T13:09:00.408Z,4.90
2023-05-09T13:11:27.283Z,3.13
2023-05-09T13:13:54.822Z,4.45
2023-05-09T13:16:21.893Z,6.85
2023-05-09T13:18:48.431Z,6.22
2023-05-09T13:21:15.014Z,3.97
2023-05-09T13:23:42.209Z,5.07
2023-05-09T13:26:08.676Z,4.68
2023-05-09T13:28:35.118Z,9.02
2023-05-09T13:31:01.688Z,6.95
2023-05-09T13:33:28.182Z,3.92
2023-05-09T13:35:54.748Z,4.68
2023-05-09T13:38:21.264Z,9.32
2023-05-09T13:40:47.761Z,9.05
2023-05-09T13:43:14.230Z,4.22
2023-05-09T13:45:40.705Z,3.95
2023-05-09T13:48:07.673Z,3.67
2023-05-09T13:50:34.298Z,5.35
2023-05-09T13:53:00.818Z,5.40
2023-05-09T13:55:27.704Z,3.05
2023-05-09T13:57:54.716Z,3.75
2023-05-09T14:00:21.847Z,4.95
2023-05-09T14:02:48.939Z,4.60
2023-05-09T14:05:15.570Z,4.70
2023-05-09T14:07:42.857Z,3.15
2023-05-09T14:10:16.501Z,6.32
2023-05-09T14:12:47.220Z,4.97
2023-05-09T14:15:14.038Z,3.22
2023-05-09T14:17:40.718Z,4.85
2023-05-09T14:20:08.189Z,4.07
2023-05-09T14:22:34.699Z,7.68
2023-05-09T14:25:01.228Z,5.78
2023-05-09T14:27:27.744Z,6.07
2023-05-09T14:29:54.356Z,5.53
2023-05-09T14:32:21.040Z,2.35
2023-05-09T14:34:49.621Z,3.03
2023-05-09T14:37:16.255Z,4.05
2023-05-09T14:39:43.909Z,8.50
2023-05-09T14:42:11.573Z,2.45
2023-05-09T14:44:38.601Z,4.88
2023-05-09T14:47:05.316Z,2.50
2023-05-09T14:49:32.447Z,3.88
2023-05-09T14:51:58.984Z,7.95
2023-05-09T14:54:25.609Z,2.30
2023-05-09T14:56:52.058Z,4.53
2023-05-09T14:59:18.628Z,4.65
2023-05-09T15:01:46.268Z,4.38
2023-05-09T15:04:12.895Z,6.28
2023-05-09T15:06:39.658Z,6.20
2023-05-09T15:09:06.193Z,3.03
2023-05-09T15:11:43.630Z,4.35
2023-05-09T15:14:14.747Z,4.70
2023-05-09T15:16:41.485Z,5.15
2023-05-09T15:19:08.275Z,5.47
2023-05-09T15:21:35.097Z,3.28
2023-05-09T15:24:02.415Z,3.05
2023-05-09T15:26:29.190Z,6.78
2023-05-09T15:28:55.669Z,7.10
2023-05-09T15:31:23.298Z,6.72
2023-05-09T15:33:49.816Z,6.70
2023-05-09T15:36:16.342Z,3.88
2023-05-09T15:38:42.850Z,4.63
2023-05-09T15:41:09.419Z,4.90
2023-05-09T15:43:35.876Z,3.75
2023-05-09T15:46:02.487Z,3.42
2023-05-09T15:48:28.978Z,4.63
2023-05-09T15:50:55.602Z,4.45
2023-05-09T15:53:23.180Z,5.00
2023-05-09T15:55:49.894Z,3.85
2023-05-09T15:58:16.488Z,2.95
2023-05-09T16:00:42.997Z,5.63
2023-05-09T16:03:09.598Z,7.90
2023-05-09T16:05:36.203Z,2.38
2023-05-09T16:08:02.907Z,2.67
2023-05-09T16:10:29.416Z,8.00
2023-05-09T16:12:55.922Z,7.18
2023-05-09T16:15:22.477Z,3.60
2023-05-09T16:17:48.928Z,6.05
2023-05-09T16:20:15.646Z,3.28
2023-05-09T16:22:42.418Z,2.22
2023-05-09T16:25:09.310Z,4.45
2023-05-09T16:27:35.816Z,2.92
2023-05-09T16:30:03.004Z,4.57
2023-05-09T16:32:29.521Z,4.00
2023-05-09T16:34:56.047Z,2.95
2023-05-09T16:37:23.437Z,5.80
2023-05-09T16:39:50.195Z,8.73
2023-05-09T16:42:16.963Z,6.28
2023-05-09T16:44:43.506Z,5.30
2023-05-09T16:47:10.070Z,5.15
2023-05-09T16:49:36.586Z,4.13
2023-05-09T16:52:03.115Z,3.15
2023-05-09T16:54:31.139Z,5.13
2023-05-09T16:56:57.636Z,5.07
2023-05-09T16:59:24.131Z,5.30
2023-05-09T17:01:51.050Z,5.00
2023-05-09T17:04:17.596Z,4.18
2023-05-09T17:06:44.085Z,3.47
2023-05-09T17:09:10.592Z,7.32
2023-05-09T17:11:37.062Z,3.25
2023-05-09T17:14:03.547Z,3.42
2023-05-09T17:16:30.194Z,3.75
2023-05-09T17:18:56.729Z,3.35
2023-05-09T17:21:23.417Z,6.07
2023-05-09T17:23:49.922Z,5.72
2023-05-09T17:26:16.436Z,4.70
2023-05-09T17:28:43.094Z,4.72
2023-05-09T17:31:09.818Z,4.43
2023-05-09T17:33:36.418Z,5.38
2023-05-09T17:36:02.913Z,6.45
2023-05-09T17:38:30.064Z,5.70
2023-05-09T17:40:56.533Z,5.93
2023-05-09T17:43:24.030Z,5.63
2023-05-09T17:45:51.877Z,5.03
2023-05-09T17:48:18.529Z,7.13
2023-05-09T17:50:46.552Z,11.07
2023-05-09T17:53:13.442Z,6.97
2023-05-09T17:55:41.326Z,3.13
2023-05-09T17:58:08.192Z,11.55
2023-05-09T18:00:34.750Z,8.55
2023-05-09T18:03:03.674Z,11.40
2023-05-09T18:05:30.425Z,11.95
2023-05-09T18:07:57.471Z,15.35
2023-05-09T18:10:24.115Z,9.77
2023-05-09T18:12:50.854Z,8.45
2023-05-09T18:15:17.348Z,9.70
2023-05-09T18:17:46.078Z,8.80
2023-05-09T18:20:12.810Z,6.80
2023-05-09T18:22:39.508Z,3.85
2023-05-09T18:25:06.402Z,7.72
2023-05-09T18:27:32.868Z,5.22
2023-05-09T18:29:59.350Z,9.07
2023-05-09T18:32:25.948Z,5.00
2023-05-09T18:34:52.544Z,10.95
2023-05-09T18:37:19.219Z,8.38
2023-05-09T18:39:45.851Z,6.57
2023-05-09T18:42:14.542Z,10.57
2023-05-09T18:44:42.564Z,14.77
2023-05-09T18:47:09.236Z,12.88
2023-05-09T18:49:36.154Z,27.52
2023-05-09T18:52:03.450Z,21.13
2023-05-09T18:54:30.073Z,12.88
2023-05-09T18:56:56.589Z,6.20
2023-05-09T18:59:23.533Z,6.85
2023-05-09T19:01:50.287Z,6.35
2023-05-09T19:04:17.432Z,10.90
2023-05-09T19:06:44.154Z,7.00
2023-05-09T19:09:11.500Z,8.27
2023-05-09T19:11:38.092Z,6.45
2023-05-09T19:14:05.114Z,19.58
2023-05-09T19:16:31.866Z,7.53
2023-05-09T19:18:58.486Z,7.05
2023-05-09T19:21:25.467Z,8.30
2023-05-09T19:23:52.306Z,7.93
2023-05-09T19:26:19.690Z,5.28
2023-05-09T19:28:46.778Z,7.88
2023-05-09T19:31:14.492Z,6.90
2023-05-09T19:33:42.647Z,5.03
2023-05-09T19:36:09.129Z,5.05
2023-05-09T19:38:35.664Z,4.93
2023-05-09T19:41:02.172Z,9.90
2023-05-09T19:43:28.699Z,7.60
2023-05-09T19:45:55.309Z,7.40
2023-05-09T19:48:22.014Z,8.23
2023-05-09T19:50:48.833Z,5.90
2023-05-09T19:53:15.290Z,5.93
2023-05-09T19:55:43.788Z,8.48
2023-05-09T19:58:10.245Z,6.93
2023-05-09T20:00:38.787Z,8.10
2023-05-09T20:03:05.339Z,6.85
2023-05-09T20:05:31.973Z,5.28
2023-05-09T20:07:58.463Z,6.35
2023-05-09T20:10:24.945Z,5.03
2023-05-09T20:12:52.999Z,7.50
2023-05-09T20:15:19.537Z,10.85
2023-05-09T20:17:47.049Z,9.88
2023-05-09T20:20:13.735Z,6.32
2023-05-09T20:22:40.367Z,6.28
2023-05-09T20:25:07.047Z,5.18
2023-05-09T20:27:35.399Z,8.02
2023-05-09T20:30:03.499Z,6.93
2023-05-09T20:32:30.285Z,7.90
2023-05-09T20:34:56.999Z,8.15
2023-05-09T20:37:23.463Z,5.22
2023-05-09T20:39:49.973Z,5.05
2023-05-09T20:42:16.421Z,7.15
2023-05-09T20:44:42.927Z,6.80
2023-05-09T20:47:09.430Z,8.77
2023-05-09T20:49:35.928Z,6.07
2023-05-09T20:52:02.443Z,14.75
2023-05-09T20:54:30.849Z,6.80
2023-05-09T20:56:57.499Z,5.60
2023-05-09T20:59:23.969Z,5.95
2023-05-09T21:01:52.161Z,8.38
2023-05-09T21:04:18.725Z,6.28
2023-05-09T21:06:45.197Z,5.88
2023-05-09T21:09:11.675Z,5.40
2023-05-09T21:11:39.567Z,6.60
2023-05-09T21:14:06.608Z,5.72
2023-05-09T21:16:33.085Z,7.45
2023-05-09T21:19:02.496Z,6.40
2023-05-09T21:21:29.167Z,5.78
2023-05-09T21:23:55.731Z,7.18
2023-05-09T21:26:23.138Z,7.95
2023-05-09T21:28:49.621Z,11.23
2023-05-09T21:31:16.076Z,8.45
2023-05-09T21:33:42.577Z,6.60
2023-05-09T21:36:09.080Z,7.57
2023-05-09T21:38:35.583Z,6.00
2023-05-09T21:41:02.153Z,6.38
2023-05-09T21:43:28.966Z,6.68
2023-05-09T21:45:55.920Z,7.32
2023-05-09T21:48:22.505Z,5.78
2023-05-09T21:50:49.059Z,7.18
2023-05-09T21:53:15.550Z,9.75
2023-05-09T21:55:42.034Z,7.47
2023-05-09T21:58:08.514Z,7.07
2023-05-09T22:00:35.074Z,8.32
2023-05-09T22:03:01.821Z,8.93
2023-05-09T22:05:28.356Z,8.50
2023-05-09T22:07:54.915Z,6.10
2023-05-09T22:10:21.376Z,7.80
2023-05-09T22:12:48.349Z,10.13
2023-05-09T22:15:14.901Z,8.27
2023-05-09T22:17:41.514Z,7.30
2023-05-09T22:20:09.100Z,7.50
2023-05-09T22:22:35.566Z,6.35
2023-05-09T22:25:03.783Z,9.75
2023-05-09T22:27:30.427Z,8.60
2023-05-09T22:29:57.044Z,6.60
2023-05-09T22:32:23.544Z,9.00
2023-05-09T22:34:50.045Z,7.18
2023-05-09T22:37:16.583Z,7.22
2023-05-09T22:39:44.357Z,9.23
2023-05-09T22:42:11.312Z,6.82
2023-05-09T22:44:38.955Z,9.80
2023-05-09T22:47:07.746Z,8.15
2023-05-09T22:49:35.419Z,6.95
2023-05-09T22:52:02.200Z,8.35
2023-05-09T22:54:28.720Z,8.52
2023-05-09T22:56:55.228Z,8.52
2023-05-09T22:59:22.507Z,10.70
2023-05-09T23:01:49.115Z,10.13
2023-05-09T23:04:15.595Z,9.18
2023-05-09T23:06:42.074Z,10.35
2023-05-09T23:09:08.524Z,10.15
2023-05-09T23:11:34.954Z,10.20
2023-05-09T23:14:01.482Z,8.25
2023-05-09T23:16:28.012Z,9.23
2023-05-09T23:18:54.457Z,6.97
2023-05-09T23:21:20.956Z,8.93
2023-05-09T23:23:47.471Z,7.40
2023-05-09T23:26:13.906Z,6.85
2023-05-09T23:28:40.376Z,9.40
2023-05-09T23:31:06.861Z,8.95
2023-05-09T23:33:33.462Z,7.68
2023-05-09T23:35:59.958Z,7.30
2023-05-09T23:38:26.416Z,7.82
2023-05-09T23:40:53.109Z,10.05
2023-05-09T23:43:19.584Z,7.28
2023-05-09T23:45:46.048Z,8.52
2023-05-09T23:48:12.600Z,10.13
2023-05-09T23:50:39.101Z,11.27
2023-05-09T23:53:06.496Z,10.27
2023-05-09T23:55:33.240Z,9.63
2023-05-09T23:58:00.685Z,7.82
